Time;durP1;ratioP1;P1;durP2;ratioP2;P2;SDS_P1;SDS_P2;PMS_P1;PMS_P2;Temp;Humidity;BMP_temperature;BMP_pressure;BME280_temperature;BME280_humidity;BME280_pressure;Samples;Min_cycle;Max_cycle;Signal;HPM_P1;HPM_P2
2021/09/26 00:00:45;;;;;;;;;;;10.10;99.90;;;;;;5068390;28;20069;-70
2021/09/26 00:03:11;;;;;;;;;;;10.10;99.90;;;;;;5071104;28;19919;-70
2021/09/26 00:05:36;;;;;;;;;;;10.10;99.90;;;;;;5067438;28;20199;-70
2021/09/26 00:08:02;;;;;;;;;;;10.10;99.90;;;;;;5070541;28;20091;-70
2021/09/26 00:10:28;;;;;;;;;;;10.10;99.90;;;;;;5068405;28;19987;-70
2021/09/26 00:12:53;;;;;;;;;;;10.20;99.90;;;;;;5069028;28;19957;-70
2021/09/26 00:15:20;;;;;;;;;;;10.10;99.90;;;;;;5069446;28;19919;-70
2021/09/26 00:17:47;;;;;;;;;;;10.10;99.90;;;;;;5070316;28;19912;-70
2021/09/26 00:20:13;;;;;;;;;;;10.10;99.90;;;;;;5070266;28;20197;-70
2021/09/26 00:22:39;;;;;;;;;;;10.00;99.90;;;;;;5067646;28;20096;-70
2021/09/26 00:25:05;;;;;;;;;;;10.00;99.90;;;;;;5069808;28;19943;-70
2021/09/26 00:27:31;;;;;;;;;;;10.00;99.90;;;;;;5069474;28;20169;-70
2021/09/26 00:29:57;;;;;;;;;;;10.00;99.90;;;;;;5069517;28;19983;-70
2021/09/26 00:32:23;;;;;;;;;;;9.90;99.90;;;;;;5067941;28;20183;-70
2021/09/26 00:34:48;;;;;;;;;;;9.90;99.90;;;;;;5070687;28;20195;-70
2021/09/26 00:37:14;;;;;;;;;;;9.80;99.90;;;;;;5070044;28;19916;-70
2021/09/26 00:39:40;;;;;;;;;;;9.80;99.90;;;;;;5069126;28;20019;-70
2021/09/26 00:42:06;;;;;;;;;;;9.80;99.90;;;;;;5069425;28;19916;-71
2021/09/26 00:44:32;;;;;;;;;;;9.80;99.90;;;;;;5069889;28;19956;-71
2021/09/26 00:46:57;;;;;;;;;;;9.80;99.90;;;;;;5067951;28;20084;-71
2021/09/26 00:49:23;;;;;;;;;;;9.80;99.90;;;;;;5070373;28;19912;-71
2021/09/26 00:51:49;;;;;;;;;;;9.80;99.90;;;;;;5071146;28;20191;-70
2021/09/26 00:54:15;;;;;;;;;;;9.70;99.90;;;;;;5074588;28;21293;-71
2021/09/26 00:56:41;;;;;;;;;;;9.70;99.90;;;;;;5073476;28;19916;-71
2021/09/26 00:59:07;;;;;;;;;;;9.70;99.90;;;;;;5072876;28;19921;-71
2021/09/26 01:01:33;;;;;;;;;;;9.60;99.90;;;;;;5068920;28;19946;-71
2021/09/26 01:04:00;;;;;;;;;;;9.60;99.90;;;;;;5072549;28;20153;-71
2021/09/26 01:06:34;;;;;;;;;;;9.60;99.90;;;;;;5072876;28;19934;-71
2021/09/26 01:09:20;;;;;;;;;;;9.70;99.90;;;;;;5072429;28;19978;-71
2021/09/26 01:12:05;;;;;;;;;;;9.70;99.90;;;;;;5070655;28;19987;-71
2021/09/26 01:14:33;;;;;;;;;;;9.70;99.90;;;;;;5073443;28;19916;-71
2021/09/26 01:17:02;;;;;;;;;;;9.70;99.90;;;;;;5072859;28;19919;-71
2021/09/26 01:19:47;;;;;;;;;;;9.70;99.90;;;;;;5072298;28;19920;-71
2021/09/26 01:22:19;;;;;;;;;;;9.70;99.90;;;;;;5072841;28;20003;-71
2021/09/26 01:25:03;;;;;;;;;;;9.70;99.90;;;;;;5071146;28;19956;-71
2021/09/26 01:27:44;;;;;;;;;;;9.70;99.90;;;;;;5074003;28;19919;-71
2021/09/26 01:30:17;;;;;;;;;;;9.70;99.90;;;;;;5072467;28;19955;-71
2021/09/26 01:32:53;;;;;;;;;;;9.70;99.90;;;;;;5072593;28;19919;-71
2021/09/26 01:35:21;;;;;;;;;;;9.70;99.90;;;;;;5070248;28;19913;-71
2021/09/26 01:38:07;;;;;;;;;;;9.70;99.90;;;;;;5071769;28;19912;-71
2021/09/26 01:40:46;;;;;;;;;;;9.70;99.90;;;;;;5071871;28;19928;-71
2021/09/26 01:43:14;;;;;;;;;;;9.60;99.90;;;;;;5072950;28;20114;-71
2021/09/26 01:45:46;;;;;;;;;;;9.60;99.90;;;;;;5070261;28;19955;-71
2021/09/26 01:48:14;;;;;;;;;;;9.60;99.90;;;;;;5071246;28;20215;-71
2021/09/26 01:50:41;;;;;;;;;;;9.50;99.90;;;;;;5073002;28;19934;-71
2021/09/26 01:53:07;;;;;;;;;;;9.50;99.90;;;;;;5072045;28;19919;-71
2021/09/26 01:55:34;;;;;;;;;;;9.50;99.90;;;;;;5071890;28;19944;-70
2021/09/26 01:58:00;;;;;;;;;;;9.50;99.90;;;;;;5070763;28;20250;-71
2021/09/26 02:00:26;;;;;;;;;;;9.50;99.90;;;;;;5071092;28;20034;-71
2021/09/26 02:02:52;;;;;;;;;;;9.50;99.90;;;;;;5072890;28;19916;-71
2021/09/26 02:05:18;;;;;;;;;;;9.50;99.90;;;;;;5072444;28;19920;-71
2021/09/26 02:07:46;;;;;;;;;;;9.40;99.90;;;;;;5072184;28;20137;-71
2021/09/26 02:10:13;;;;;;;;;;;9.40;99.90;;;;;;5071525;28;19919;-71
2021/09/26 02:12:39;;;;;;;;;;;9.40;99.90;;;;;;5072838;28;20265;-71
2021/09/26 02:15:06;;;;;;;;;;;9.40;99.90;;;;;;5068925;28;20111;-71
2021/09/26 02:17:32;;;;;;;;;;;9.40;99.90;;;;;;5071120;28;20159;-71
2021/09/26 02:20:02;;;;;;;;;;;9.40;99.90;;;;;;5073090;28;19920;-71
2021/09/26 02:22:29;;;;;;;;;;;9.40;99.90;;;;;;5072053;28;19924;-71
2021/09/26 02:24:56;;;;;;;;;;;9.40;99.90;;;;;;5071971;28;20165;-71
2021/09/26 02:27:22;;;;;;;;;;;9.40;99.90;;;;;;5071176;28;19912;-71
2021/09/26 02:29:48;;;;;;;;;;;9.40;99.90;;;;;;5071782;28;19923;-71
2021/09/26 02:32:13;;;;;;;;;;;9.40;99.90;;;;;;5070887;28;19912;-71
2021/09/26 02:34:39;;;;;;;;;;;9.40;99.90;;;;;;5071804;28;19951;-71
2021/09/26 02:37:05;;;;;;;;;;;9.40;99.90;;;;;;5066587;28;19912;-71
2021/09/26 02:39:30;;;;;;;;;;;9.30;99.90;;;;;;5069114;28;19921;-71
2021/09/26 02:42:14;;;;;;;;;;;9.30;99.90;;;;;;5067542;28;19918;-71
2021/09/26 02:44:52;;;;;;;;;;;9.30;99.90;;;;;;5068859;28;19965;-71
2021/09/26 02:47:21;;;;;;;;;;;9.30;99.90;;;;;;5066712;28;20211;-71
2021/09/26 02:49:47;;;;;;;;;;;9.30;99.90;;;;;;5070501;28;19935;-71
2021/09/26 02:52:13;;;;;;;;;;;9.30;99.90;;;;;;5066344;28;19912;-71
2021/09/26 02:54:40;;;;;;;;;;;9.30;99.90;;;;;;5069459;28;19912;-71
2021/09/26 02:57:07;;;;;;;;;;;9.30;99.90;;;;;;5065826;28;20206;-71
2021/09/26 02:59:33;;;;;;;;;;;9.30;99.90;;;;;;5069378;28;20182;-71
2021/09/26 03:01:59;;;;;;;;;;;9.30;99.90;;;;;;5068260;28;19919;-71
2021/09/26 03:04:25;;;;;;;;;;;9.30;99.90;;;;;;5069581;28;19946;-71
2021/09/26 03:06:51;;;;;;;;;;;9.30;99.90;;;;;;5066409;28;20225;-70
2021/09/26 03:09:16;;;;;;;;;;;9.30;99.90;;;;;;5069904;28;19909;-71
2021/09/26 03:11:42;;;;;;;;;;;9.30;99.90;;;;;;5067618;28;19912;-71
2021/09/26 03:14:08;;;;;;;;;;;9.30;99.90;;;;;;5068614;28;19913;-71
2021/09/26 03:16:34;;;;;;;;;;;9.30;99.90;;;;;;5066168;28;19988;-71
2021/09/26 03:18:59;;;;;;;;;;;9.30;99.90;;;;;;5069147;28;19975;-71
2021/09/26 03:21:27;;;;;;;;;;;9.40;99.90;;;;;;5068417;28;20402;-71
2021/09/26 03:23:54;;;;;;;;;;;9.40;99.90;;;;;;5069334;28;19966;-71
2021/09/26 03:26:19;;;;;;;;;;;9.40;99.90;;;;;;5066250;28;19913;-71
2021/09/26 03:28:45;;;;;;;;;;;9.50;99.90;;;;;;5068619;28;19923;-71
2021/09/26 03:31:11;;;;;;;;;;;9.50;99.90;;;;;;5067360;28;19983;-71
2021/09/26 03:33:36;;;;;;;;;;;9.50;99.90;;;;;;5068151;28;19908;-71
2021/09/26 03:36:03;;;;;;;;;;;9.50;99.90;;;;;;5067013;28;20194;-71
2021/09/26 03:38:29;;;;;;;;;;;9.50;99.90;;;;;;5069648;28;19966;-71
2021/09/26 03:40:55;;;;;;;;;;;9.50;99.90;;;;;;5068710;28;19920;-71
2021/09/26 03:43:20;;;;;;;;;;;9.50;99.90;;;;;;5068231;28;19920;-71
2021/09/26 03:45:50;;;;;;;;;;;9.40;99.90;;;;;;5069916;28;19912;-70
2021/09/26 03:48:17;;;;;;;;;;;9.40;99.90;;;;;;5066959;28;19924;-71
2021/09/26 03:50:43;;;;;;;;;;;9.40;99.90;;;;;;5068148;28;19912;-71
2021/09/26 03:53:09;;;;;;;;;;;9.40;99.90;;;;;;5067931;28;19912;-71
2021/09/26 03:55:35;;;;;;;;;;;9.40;99.90;;;;;;5068166;28;19912;-71
2021/09/26 03:58:00;;;;;;;;;;;9.40;99.90;;;;;;5068194;28;19974;-71
2021/09/26 04:00:26;;;;;;;;;;;9.50;99.90;;;;;;5068235;28;20146;-71
2021/09/26 04:02:52;;;;;;;;;;;9.50;99.90;;;;;;5067300;28;19952;-71
2021/09/26 04:05:17;;;;;;;;;;;9.50;99.90;;;;;;5067841;28;20011;-71
2021/09/26 04:07:43;;;;;;;;;;;9.60;99.90;;;;;;5069745;28;20206;-71
2021/09/26 04:10:09;;;;;;;;;;;9.70;99.90;;;;;;5068675;28;19979;-71
2021/09/26 04:12:35;;;;;;;;;;;9.60;99.90;;;;;;5068218;28;20050;-71
2021/09/26 04:15:02;;;;;;;;;;;9.60;99.90;;;;;;5066166;28;19913;-71
2021/09/26 04:17:27;;;;;;;;;;;9.60;99.90;;;;;;5070233;28;20236;-71
2021/09/26 04:19:53;;;;;;;;;;;9.50;99.90;;;;;;5069254;28;20333;-71
2021/09/26 04:22:19;;;;;;;;;;;9.50;99.90;;;;;;5070382;28;19919;-71
2021/09/26 04:24:45;;;;;;;;;;;9.50;99.90;;;;;;5072460;28;19979;-71
2021/09/26 04:27:10;;;;;;;;;;;9.50;99.90;;;;;;5072996;28;19917;-71
2021/09/26 04:29:36;;;;;;;;;;;9.50;99.90;;;;;;5073905;28;19919;-71
2021/09/26 04:32:02;;;;;;;;;;;9.40;99.90;;;;;;5073615;28;19916;-71
2021/09/26 04:34:28;;;;;;;;;;;9.40;99.90;;;;;;5069989;28;19919;-71
2021/09/26 04:36:54;;;;;;;;;;;9.40;99.90;;;;;;5075258;28;19919;-71
2021/09/26 04:39:20;;;;;;;;;;;9.40;99.90;;;;;;5072345;28;19928;-71
2021/09/26 04:41:46;;;;;;;;;;;9.40;99.90;;;;;;5073614;28;19950;-71
2021/09/26 04:44:12;;;;;;;;;;;9.30;99.90;;;;;;5071896;28;19920;-71
2021/09/26 04:46:37;;;;;;;;;;;9.30;99.90;;;;;;5072967;28;20222;-71
2021/09/26 04:49:03;;;;;;;;;;;9.20;99.90;;;;;;5080221;28;20241;-71
2021/09/26 04:51:29;;;;;;;;;;;9.20;99.90;;;;;;5073083;28;19912;-71
2021/09/26 04:53:54;;;;;;;;;;;9.20;99.90;;;;;;5073760;28;19979;-71
2021/09/26 04:56:20;;;;;;;;;;;9.20;99.90;;;;;;5071822;28;20173;-71
2021/09/26 04:58:46;;;;;;;;;;;9.20;99.90;;;;;;5070382;28;20198;-71
2021/09/26 05:01:12;;;;;;;;;;;9.20;99.90;;;;;;5071140;28;20170;-71
2021/09/26 05:03:37;;;;;;;;;;;9.20;99.90;;;;;;5070119;28;19977;-71
2021/09/26 05:06:03;;;;;;;;;;;9.20;99.90;;;;;;5064731;28;19919;-71
2021/09/26 05:08:29;;;;;;;;;;;9.10;99.90;;;;;;5066506;28;20160;-72
2021/09/26 05:10:54;;;;;;;;;;;9.10;99.90;;;;;;5066471;28;19959;-71
2021/09/26 05:13:20;;;;;;;;;;;9.10;99.90;;;;;;5046201;28;19913;-71
2021/09/26 05:15:46;;;;;;;;;;;9.10;99.90;;;;;;5066388;28;19916;-71
2021/09/26 05:18:12;;;;;;;;;;;9.10;99.90;;;;;;5067064;28;19920;-71
2021/09/26 05:20:38;;;;;;;;;;;9.10;99.90;;;;;;5065937;28;20005;-71
2021/09/26 05:23:04;;;;;;;;;;;9.20;99.90;;;;;;5063848;28;19916;-71
2021/09/26 05:25:29;;;;;;;;;;;9.10;99.90;;;;;;5065937;28;19915;-71
2021/09/26 05:27:55;;;;;;;;;;;9.00;99.90;;;;;;5068367;28;19935;-71
2021/09/26 05:30:21;;;;;;;;;;;9.10;99.90;;;;;;5065356;28;19913;-71
2021/09/26 05:32:47;;;;;;;;;;;9.00;99.90;;;;;;5065524;28;19919;-71
2021/09/26 05:35:13;;;;;;;;;;;9.00;99.90;;;;;;5064226;28;19919;-71
2021/09/26 05:37:38;;;;;;;;;;;9.00;99.90;;;;;;5063702;28;19998;-71
2021/09/26 05:40:05;;;;;;;;;;;9.00;99.90;;;;;;5065877;28;19928;-71
2021/09/26 05:42:31;;;;;;;;;;;9.00;99.90;;;;;;5063542;28;19912;-71
2021/09/26 05:44:57;;;;;;;;;;;9.00;99.90;;;;;;5063250;28;19923;-71
2021/09/26 05:47:22;;;;;;;;;;;9.10;99.90;;;;;;5064755;28;19979;-71
2021/09/26 05:49:48;;;;;;;;;;;9.20;99.90;;;;;;5064189;28;20133;-71
2021/09/26 05:52:14;;;;;;;;;;;9.30;99.90;;;;;;5061408;28;19919;-71
2021/09/26 05:54:40;;;;;;;;;;;9.40;99.90;;;;;;5063155;28;20126;-71
2021/09/26 05:57:06;;;;;;;;;;;9.50;99.90;;;;;;5066651;28;19913;-71
2021/09/26 05:59:36;;;;;;;;;;;9.60;99.90;;;;;;5064216;28;20461;-71
2021/09/26 06:02:02;;;;;;;;;;;9.70;99.90;;;;;;5064331;28;19985;-71
2021/09/26 06:04:28;;;;;;;;;;;9.90;99.90;;;;;;5064876;28;20809;-71
2021/09/26 06:06:53;;;;;;;;;;;10.00;99.90;;;;;;5063239;28;19919;-71
2021/09/26 06:09:19;;;;;;;;;;;10.30;99.90;;;;;;5066489;28;19946;-71
2021/09/26 06:11:45;;;;;;;;;;;10.30;99.90;;;;;;5067626;28;19950;-71
2021/09/26 06:14:10;;;;;;;;;;;10.60;99.90;;;;;;5062983;28;19975;-71
2021/09/26 06:16:36;;;;;;;;;;;10.80;99.90;;;;;;5064098;28;19912;-71
2021/09/26 06:19:02;;;;;;;;;;;11.00;99.90;;;;;;5063773;28;19912;-71
2021/09/26 06:21:28;;;;;;;;;;;11.20;99.90;;;;;;5059860;28;19993;-71
2021/09/26 06:23:53;;;;;;;;;;;11.40;99.90;;;;;;5060209;28;19916;-71
2021/09/26 06:26:20;;;;;;;;;;;11.60;99.90;;;;;;5063823;28;19912;-71
2021/09/26 06:28:45;;;;;;;;;;;11.70;99.90;;;;;;5063628;28;20517;-71
2021/09/26 06:31:11;;;;;;;;;;;11.80;99.90;;;;;;5063650;28;20252;-71
2021/09/26 06:33:40;;;;;;;;;;;11.90;99.90;;;;;;5066035;28;19913;-71
2021/09/26 06:36:06;;;;;;;;;;;12.00;99.90;;;;;;5061990;28;20241;-70
2021/09/26 06:38:32;;;;;;;;;;;12.20;99.90;;;;;;5060250;28;19913;-71
2021/09/26 06:40:58;;;;;;;;;;;12.20;99.90;;;;;;5062554;28;19962;-71
2021/09/26 06:43:23;;;;;;;;;;;12.30;99.90;;;;;;5066489;28;20350;-71
2021/09/26 06:45:49;;;;;;;;;;;12.40;99.90;;;;;;5067264;28;19982;-71
2021/09/26 06:48:15;;;;;;;;;;;12.40;99.90;;;;;;5062700;28;19916;-71
2021/09/26 06:50:41;;;;;;;;;;;12.40;99.90;;;;;;5068072;28;19912;-71
2021/09/26 06:53:06;;;;;;;;;;;12.50;99.90;;;;;;5070865;28;20269;-71
2021/09/26 06:55:32;;;;;;;;;;;12.60;99.90;;;;;;5066953;28;20181;-71
2021/09/26 06:57:58;;;;;;;;;;;12.60;99.90;;;;;;5062237;28;19916;-71
2021/09/26 07:00:24;;;;;;;;;;;12.70;99.90;;;;;;5066636;28;19965;-71
2021/09/26 07:02:51;;;;;;;;;;;12.80;99.90;;;;;;5065595;28;19913;-71
2021/09/26 07:05:17;;;;;;;;;;;12.90;99.90;;;;;;5068735;28;19912;-71
2021/09/26 07:07:45;;;;;;;;;;;13.00;99.90;;;;;;5069003;28;20242;-71
2021/09/26 07:10:11;;;;;;;;;;;13.20;99.90;;;;;;5069090;28;19920;-71
2021/09/26 07:12:37;;;;;;;;;;;13.40;99.90;;;;;;5069480;28;20281;-71
2021/09/26 07:15:03;;;;;;;;;;;13.40;99.90;;;;;;5070943;28;20202;-71
2021/09/26 07:17:29;;;;;;;;;;;13.50;99.90;;;;;;5065248;28;19919;-71
2021/09/26 07:19:55;;;;;;;;;;;13.70;99.90;;;;;;5067763;28;19920;-71
2021/09/26 07:22:23;;;;;;;;;;;13.90;99.90;;;;;;5060536;28;19979;-71
2021/09/26 07:24:52;;;;;;;;;;;14.00;99.90;;;;;;5060363;28;19935;-71
2021/09/26 07:27:18;;;;;;;;;;;14.20;99.90;;;;;;5059886;28;19919;-71
2021/09/26 07:29:44;;;;;;;;;;;14.20;99.90;;;;;;5062562;28;19919;-71
2021/09/26 07:32:11;;;;;;;;;;;14.30;99.90;;;;;;5059231;28;20106;-71
2021/09/26 07:34:36;;;;;;;;;;;14.40;99.90;;;;;;5068302;28;19916;-71
2021/09/26 07:37:02;;;;;;;;;;;14.40;99.90;;;;;;5066623;28;20207;-71
2021/09/26 07:39:28;;;;;;;;;;;14.50;99.90;;;;;;5067046;28;19951;-71
2021/09/26 07:41:53;;;;;;;;;;;14.50;99.90;;;;;;5066168;28;20139;-71
2021/09/26 07:44:19;;;;;;;;;;;14.50;99.90;;;;;;5069214;28;19942;-71
2021/09/26 07:46:45;;;;;;;;;;;14.70;99.90;;;;;;5065539;28;19919;-71
2021/09/26 07:49:10;;;;;;;;;;;14.90;99.90;;;;;;5067750;28;19913;-71
2021/09/26 07:51:36;;;;;;;;;;;15.10;99.90;;;;;;5070049;28;19908;-69
2021/09/26 07:54:02;;;;;;;;;;;15.40;99.90;;;;;;5066562;28;19983;-69
2021/09/26 07:56:27;;;;;;;;;;;15.50;99.90;;;;;;5067880;28;19981;-72
2021/09/26 07:58:53;;;;;;;;;;;15.60;99.90;;;;;;5070642;28;20287;-68
2021/09/26 08:01:19;;;;;;;;;;;16.00;99.90;;;;;;5065235;28;19924;-69
2021/09/26 08:03:44;;;;;;;;;;;16.20;99.90;;;;;;5067894;28;19935;-69
2021/09/26 08:06:10;;;;;;;;;;;16.20;99.90;;;;;;5073034;28;19912;-69
2021/09/26 08:08:37;;;;;;;;;;;16.10;99.90;;;;;;5080320;28;19912;-69
2021/09/26 08:11:03;;;;;;;;;;;16.10;99.90;;;;;;5071612;28;19962;-69
2021/09/26 08:13:29;;;;;;;;;;;16.10;99.90;;;;;;5068568;28;20211;-71
2021/09/26 08:15:54;;;;;;;;;;;16.00;99.90;;;;;;5067652;28;19979;-69
2021/09/26 08:18:20;;;;;;;;;;;16.00;99.90;;;;;;5069150;28;20221;-71
2021/09/26 08:20:46;;;;;;;;;;;16.00;99.90;;;;;;5063820;28;19920;-69
2021/09/26 08:23:11;;;;;;;;;;;16.00;99.90;;;;;;5067194;28;19912;-68
2021/09/26 08:25:37;;;;;;;;;;;16.00;99.90;;;;;;5065361;28;19912;-71
2021/09/26 08:28:03;;;;;;;;;;;16.20;99.90;;;;;;5067559;28;19912;-71
2021/09/26 08:30:29;;;;;;;;;;;16.20;99.90;;;;;;5068546;28;20195;-71
2021/09/26 08:32:54;;;;;;;;;;;16.20;99.90;;;;;;5071839;28;19919;-71
2021/09/26 08:35:20;;;;;;;;;;;16.20;99.90;;;;;;5069424;28;19919;-71
2021/09/26 08:37:46;;;;;;;;;;;16.30;99.90;;;;;;5069176;28;19913;-71
2021/09/26 08:40:12;;;;;;;;;;;16.40;99.90;;;;;;5068062;28;19965;-71
2021/09/26 08:42:38;;;;;;;;;;;16.50;99.90;;;;;;5070186;28;19919;-71
2021/09/26 08:45:05;;;;;;;;;;;16.60;99.90;;;;;;5069452;28;20126;-71
2021/09/26 08:47:36;;;;;;;;;;;16.80;99.90;;;;;;5068494;28;19912;-68
2021/09/26 08:50:03;;;;;;;;;;;17.00;99.90;;;;;;5068374;28;19912;-71
2021/09/26 08:52:29;;;;;;;;;;;17.30;99.90;;;;;;5068539;28;20221;-71
2021/09/26 08:54:54;;;;;;;;;;;17.40;99.90;;;;;;5068733;28;19974;-71
2021/09/26 08:57:22;;;;;;;;;;;17.40;99.90;;;;;;5068409;28;19913;-71
2021/09/26 08:59:48;;;;;;;;;;;17.40;99.90;;;;;;5069014;28;20003;-71
2021/09/26 09:02:13;;;;;;;;;;;17.40;99.90;;;;;;5071669;28;19920;-71
2021/09/26 09:04:41;;;;;;;;;;;17.40;99.90;;;;;;5070114;28;19979;-71
2021/09/26 09:07:07;;;;;;;;;;;17.50;99.90;;;;;;5072133;28;20169;-71
2021/09/26 09:09:47;;;;;;;;;;;17.50;99.90;;;;;;5068679;28;19975;-71
2021/09/26 09:12:13;;;;;;;;;;;17.60;99.90;;;;;;5068321;28;19919;-71
2021/09/26 09:14:55;;;;;;;;;;;17.90;99.90;;;;;;5071242;28;20478;-70
2021/09/26 09:17:29;;;;;;;;;;;18.00;99.90;;;;;;5062854;28;20270;-71
2021/09/26 09:20:11;;;;;;;;;;;17.90;99.90;;;;;;5067297;28;20172;-71
2021/09/26 09:22:37;;;;;;;;;;;17.80;99.90;;;;;;5070583;28;19912;-71
2021/09/26 09:25:03;;;;;;;;;;;17.80;99.90;;;;;;5069948;28;19913;-71
2021/09/26 09:27:28;;;;;;;;;;;17.90;99.90;;;;;;5070111;28;19991;-71
2021/09/26 09:29:54;;;;;;;;;;;18.00;99.90;;;;;;5067315;28;19944;-71
2021/09/26 09:32:22;;;;;;;;;;;18.00;99.90;;;;;;5070067;28;19913;-71
2021/09/26 09:34:49;;;;;;;;;;;18.00;99.90;;;;;;5067311;28;19920;-71
2021/09/26 09:37:20;;;;;;;;;;;17.90;99.90;;;;;;5068337;28;19924;-71
2021/09/26 09:40:04;;;;;;;;;;;17.90;99.90;;;;;;5068730;28;20230;-71
2021/09/26 09:42:36;;;;;;;;;;;18.00;99.90;;;;;;5069708;28;19946;-71
2021/09/26 09:45:13;;;;;;;;;;;17.90;99.90;;;;;;5066104;28;19920;-71
2021/09/26 09:47:54;;;;;;;;;;;18.00;99.90;;;;;;5068002;28;20199;-71
2021/09/26 09:50:20;;;;;;;;;;;18.10;99.90;;;;;;5069647;28;19912;-71
2021/09/26 09:52:52;;;;;;;;;;;18.00;99.90;;;;;;5070344;28;19950;-70
2021/09/26 09:55:18;;;;;;;;;;;18.00;99.90;;;;;;5068055;28;20002;-71
2021/09/26 09:57:44;;;;;;;;;;;18.00;99.90;;;;;;5067543;28;19947;-70
2021/09/26 10:00:22;;;;;;;;;;;17.90;99.90;;;;;;5066103;28;20186;-71
2021/09/26 10:02:48;;;;;;;;;;;18.00;99.90;;;;;;5065767;28;19912;-71
2021/09/26 10:05:30;;;;;;;;;;;18.10;99.90;;;;;;5064418;28;19919;-71
2021/09/26 10:07:57;;;;;;;;;;;18.10;99.90;;;;;;5065950;28;19912;-70
2021/09/26 10:10:28;;;;;;;;;;;18.00;99.90;;;;;;5065950;28;20199;-71
2021/09/26 10:13:14;;;;;;;;;;;18.00;99.90;;;;;;5066590;28;20198;-71
2021/09/26 10:15:40;;;;;;;;;;;17.90;99.90;;;;;;5063991;28;19912;-71
2021/09/26 10:18:06;;;;;;;;;;;17.90;99.90;;;;;;5061738;28;19944;-70
2021/09/26 10:20:35;;;;;;;;;;;18.10;99.90;;;;;;5065321;28;20226;-70
2021/09/26 10:23:02;;;;;;;;;;;18.10;99.90;;;;;;5062900;28;19923;-70
2021/09/26 10:25:28;;;;;;;;;;;18.10;99.90;;;;;;5063719;28;20335;-70
2021/09/26 10:27:54;;;;;;;;;;;18.00;99.90;;;;;;5064615;28;19912;-71
2021/09/26 10:30:21;;;;;;;;;;;18.00;99.90;;;;;;5062726;28;20130;-71
2021/09/26 10:32:47;;;;;;;;;;;18.10;99.90;;;;;;5051515;28;20003;-71
2021/09/26 10:35:13;;;;;;;;;;;18.10;99.90;;;;;;5054484;28;19955;-71
2021/09/26 10:37:39;;;;;;;;;;;18.10;99.90;;;;;;5052660;28;20583;-71
2021/09/26 10:40:05;;;;;;;;;;;18.10;99.90;;;;;;5053781;28;19920;-71
2021/09/26 10:42:35;;;;;;;;;;;18.00;99.90;;;;;;5054861;28;20000;-71
2021/09/26 10:45:03;;;;;;;;;;;18.00;99.90;;;;;;5051542;28;20443;-71
2021/09/26 10:47:29;;;;;;;;;;;18.00;99.90;;;;;;5052893;28;20210;-71
2021/09/26 10:50:02;;;;;;;;;;;17.90;99.90;;;;;;5052766;28;19912;-71
2021/09/26 10:52:27;;;;;;;;;;;18.00;99.90;;;;;;5054244;28;19990;-70
2021/09/26 10:54:53;;;;;;;;;;;18.10;99.90;;;;;;5051383;28;20724;-71
2021/09/26 10:57:23;;;;;;;;;;;18.10;99.90;;;;;;5052230;28;19990;-71
2021/09/26 10:59:52;;;;;;;;;;;18.00;99.90;;;;;;5057581;28;19927;-71
2021/09/26 11:02:20;;;;;;;;;;;18.10;99.90;;;;;;5059103;28;19912;-71
2021/09/26 11:04:46;;;;;;;;;;;18.20;99.90;;;;;;5052459;28;19973;-70
2021/09/26 11:07:16;;;;;;;;;;;18.30;99.90;;;;;;5055009;28;19912;-71
2021/09/26 11:09:54;;;;;;;;;;;18.30;99.90;;;;;;5058077;28;19912;-71
2021/09/26 11:12:37;;;;;;;;;;;18.40;99.90;;;;;;5052375;28;19983;-71
2021/09/26 11:15:03;;;;;;;;;;;18.40;99.90;;;;;;5053097;28;19912;-71
2021/09/26 11:17:41;;;;;;;;;;;18.40;99.90;;;;;;5063105;28;20242;-71
2021/09/26 11:20:08;;;;;;;;;;;18.40;99.90;;;;;;5067031;28;19920;-71
2021/09/26 11:22:33;;;;;;;;;;;18.40;99.90;;;;;;5066417;28;19919;-71
2021/09/26 11:24:59;;;;;;;;;;;18.50;99.90;;;;;;5070511;28;19912;-70
2021/09/26 11:27:35;;;;;;;;;;;18.60;99.90;;;;;;5068559;28;20233;-70
2021/09/26 11:30:01;;;;;;;;;;;18.60;99.90;;;;;;5065837;28;19978;-71
2021/09/26 11:32:29;;;;;;;;;;;18.80;99.90;;;;;;5068290;28;19912;-71
2021/09/26 11:34:57;;;;;;;;;;;18.80;99.90;;;;;;5065376;28;19912;-70
2021/09/26 11:37:35;;;;;;;;;;;18.80;99.90;;;;;;5069762;28;19913;-70
2021/09/26 11:40:02;;;;;;;;;;;18.80;99.90;;;;;;5065893;28;19921;-70
2021/09/26 11:42:29;;;;;;;;;;;18.90;99.90;;;;;;5060004;28;20293;-70
2021/09/26 11:44:55;;;;;;;;;;;19.10;99.90;;;;;;5063624;28;19991;-70
2021/09/26 11:47:22;;;;;;;;;;;19.20;99.90;;;;;;5062766;28;20244;-71
2021/09/26 11:49:48;;;;;;;;;;;19.20;99.90;;;;;;5043583;28;19923;-70
2021/09/26 11:52:13;;;;;;;;;;;19.10;99.90;;;;;;5064665;28;19983;-70
2021/09/26 11:54:39;;;;;;;;;;;19.10;99.90;;;;;;5068570;28;20240;-70
2021/09/26 11:57:09;;;;;;;;;;;19.10;99.90;;;;;;5069270;28;20094;-70
2021/09/26 11:59:40;;;;;;;;;;;19.10;99.90;;;;;;5067313;28;19950;-71
2021/09/26 12:02:12;;;;;;;;;;;19.10;99.90;;;;;;5063658;28;19919;-70
2021/09/26 12:04:38;;;;;;;;;;;19.10;99.90;;;;;;5064906;28;19921;-70
2021/09/26 12:07:05;;;;;;;;;;;19.10;99.90;;;;;;5049344;28;19919;-70
2021/09/26 12:09:34;;;;;;;;;;;19.20;99.90;;;;;;5058347;28;20162;-70
2021/09/26 12:12:00;;;;;;;;;;;19.10;99.90;;;;;;5052427;28;19912;-70
2021/09/26 12:14:29;;;;;;;;;;;19.00;99.90;;;;;;5060278;28;19912;-70
2021/09/26 12:16:58;;;;;;;;;;;19.00;99.90;;;;;;5054286;28;19912;-71
2021/09/26 12:19:24;;;;;;;;;;;19.10;99.90;;;;;;5051164;28;20131;-70
2021/09/26 12:21:58;;;;;;;;;;;19.10;99.90;;;;;;5053384;28;19912;-70
2021/09/26 12:24:29;;;;;;;;;;;19.10;99.90;;;;;;5054163;28;20332;-70
2021/09/26 12:26:55;;;;;;;;;;;19.10;99.90;;;;;;5050605;28;21091;-71
2021/09/26 12:29:25;;;;;;;;;;;19.20;99.90;;;;;;5052350;28;20252;-70
2021/09/26 12:31:54;;;;;;;;;;;19.20;99.90;;;;;;5057524;28;19919;-70
2021/09/26 12:34:22;;;;;;;;;;;19.30;99.90;;;;;;5054623;28;19912;-71
2021/09/26 12:36:48;;;;;;;;;;;19.30;99.90;;;;;;5047518;28;19913;-70
2021/09/26 12:39:23;;;;;;;;;;;19.40;99.90;;;;;;5053085;28;19981;-70
2021/09/26 12:41:51;;;;;;;;;;;19.30;99.90;;;;;;5053015;28;19940;-70
2021/09/26 12:44:24;;;;;;;;;;;19.30;99.90;;;;;;5052439;28;19926;-70
2021/09/26 12:46:50;;;;;;;;;;;19.30;99.90;;;;;;5057677;28;21667;-71
2021/09/26 12:49:17;;;;;;;;;;;19.30;99.90;;;;;;5048440;28;19970;-70
2021/09/26 12:51:48;;;;;;;;;;;19.40;99.90;;;;;;5057163;28;19912;-70
2021/09/26 12:54:14;;;;;;;;;;;19.30;99.90;;;;;;5057025;28;20102;-71
2021/09/26 12:56:42;;;;;;;;;;;19.30;99.90;;;;;;5054840;28;19993;-70
2021/09/26 12:59:24;;;;;;;;;;;19.40;99.90;;;;;;5055862;28;19912;-70
2021/09/26 13:02:07;;;;;;;;;;;19.30;99.90;;;;;;5053989;28;20320;-71
2021/09/26 13:04:33;;;;;;;;;;;19.40;99.90;;;;;;5057273;28;20347;-70
2021/09/26 13:07:01;;;;;;;;;;;19.40;99.90;;;;;;5055137;28;20231;-70
2021/09/26 13:09:38;;;;;;;;;;;19.30;99.90;;;;;;5058713;28;20213;-70
2021/09/26 13:12:22;;;;;;;;;;;19.30;99.90;;;;;;5048008;28;19944;-71
2021/09/26 13:15:06;;;;;;;;;;;19.30;99.90;;;;;;5054813;28;19913;-70
2021/09/26 13:17:31;;;;;;;;;;;19.30;99.90;;;;;;5053769;28;19917;-72
2021/09/26 13:19:57;;;;;;;;;;;19.30;99.90;;;;;;5053400;28;19920;-73
2021/09/26 13:22:26;;;;;;;;;;;19.20;99.90;;;;;;5056954;28;19916;-73
2021/09/26 13:24:57;;;;;;;;;;;19.20;99.90;;;;;;5056087;28;19944;-73
2021/09/26 13:27:23;;;;;;;;;;;19.10;99.90;;;;;;5056580;28;19911;-72
2021/09/26 13:29:49;;;;;;;;;;;19.20;99.90;;;;;;5064140;28;19961;-72
2021/09/26 13:32:20;;;;;;;;;;;19.10;99.90;;;;;;5067180;28;19923;-72
2021/09/26 13:34:54;;;;;;;;;;;19.00;99.90;;;;;;5058069;28;20264;-73
2021/09/26 13:37:21;;;;;;;;;;;19.10;99.90;;;;;;5056231;28;19913;-73
2021/09/26 13:39:49;;;;;;;;;;;19.00;99.90;;;;;;5058116;28;19928;-72
2021/09/26 13:42:17;;;;;;;;;;;19.00;99.90;;;;;;5058000;28;19958;-73
2021/09/26 13:44:43;;;;;;;;;;;19.00;99.90;;;;;;5052062;28;20150;-73
2021/09/26 13:47:08;;;;;;;;;;;19.10;99.90;;;;;;5056196;28;20252;-72
2021/09/26 13:49:34;;;;;;;;;;;19.00;99.90;;;;;;5054201;28;20546;-73
2021/09/26 13:52:00;;;;;;;;;;;19.00;99.90;;;;;;5057466;28;19916;-72
2021/09/26 13:54:26;;;;;;;;;;;19.00;99.90;;;;;;5067845;28;20239;-73
2021/09/26 13:56:52;;;;;;;;;;;19.10;99.90;;;;;;5068822;28;20283;-73
2021/09/26 13:59:18;;;;;;;;;;;19.10;99.90;;;;;;5067959;28;19919;-73
2021/09/26 14:01:43;;;;;;;;;;;19.10;99.90;;;;;;5066837;28;20248;-72
2021/09/26 14:04:09;;;;;;;;;;;19.00;99.90;;;;;;5067288;28;19970;-73
2021/09/26 14:06:35;;;;;;;;;;;19.00;99.90;;;;;;5069331;28;19912;-72
2021/09/26 14:09:01;;;;;;;;;;;18.90;99.90;;;;;;5067676;28;19920;-73
2021/09/26 14:11:27;;;;;;;;;;;18.90;99.90;;;;;;5066211;28;19942;-74
2021/09/26 14:13:52;;;;;;;;;;;18.90;99.90;;;;;;5069449;28;20187;-72
2021/09/26 14:16:19;;;;;;;;;;;18.80;99.90;;;;;;5068968;28;19912;-72
2021/09/26 14:18:45;;;;;;;;;;;18.70;99.90;;;;;;5068275;28;19952;-72
2021/09/26 14:21:11;;;;;;;;;;;18.90;99.90;;;;;;5069454;28;19921;-72
2021/09/26 14:23:37;;;;;;;;;;;18.80;99.90;;;;;;5068172;28;20363;-73